sensor_id;sensor_type;location;lat;lon;timestamp;P1;durP1;ratioP1;P2;durP2;ratioP2
33553;SDS011;19885;42.208;24.952;2022-12-10T00:01:08;38.43;;;17.47;;
33553;SDS011;19885;42.208;24.952;2022-12-10T00:03:36;48.87;;;20.00;;
33553;SDS011;19885;42.208;24.952;2022-12-10T00:06:03;46.13;;;17.83;;
33553;SDS011;19885;42.208;24.952;2022-12-10T00:08:30;42.93;;;18.70;;
33553;SDS011;19885;42.208;24.952;2022-12-10T00:10:56;41.33;;;17.07;;
33553;SDS011;19885;42.208;24.952;2022-12-10T00:13:22;50.87;;;18.23;;
33553;SDS011;19885;42.208;24.952;2022-12-10T00:15:48;46.87;;;18.10;;
33553;SDS011;19885;42.208;24.952;2022-12-10T00:18:14;38.30;;;17.53;;
33553;SDS011;19885;42.208;24.952;2022-12-10T00:20:39;32.80;;;15.27;;
33553;SDS011;19885;42.208;24.952;2022-12-10T00:23:05;40.00;;;18.37;;
33553;SDS011;19885;42.208;24.952;2022-12-10T00:25:31;37.37;;;17.27;;
33553;SDS011;19885;42.208;24.952;2022-12-10T00:27:57;35.60;;;17.10;;
33553;SDS011;19885;42.208;24.952;2022-12-10T00:30:23;40.60;;;17.70;;
33553;SDS011;19885;42.208;24.952;2022-12-10T00:32:49;44.03;;;19.10;;
33553;SDS011;19885;42.208;24.952;2022-12-10T00:35:14;44.67;;;18.80;;
33553;SDS011;19885;42.208;24.952;2022-12-10T00:37:40;54.60;;;16.23;;
33553;SDS011;19885;42.208;24.952;2022-12-10T00:40:05;47.27;;;20.57;;
33553;SDS011;19885;42.208;24.952;2022-12-10T00:42:31;37.30;;;17.27;;
33553;SDS011;19885;42.208;24.952;2022-12-10T00:44:57;38.97;;;16.77;;
33553;SDS011;19885;42.208;24.952;2022-12-10T00:47:22;50.77;;;17.17;;
33553;SDS011;19885;42.208;24.952;2022-12-10T00:49:48;42.73;;;16.20;;
33553;SDS011;19885;42.208;24.952;2022-12-10T00:52:13;45.23;;;16.73;;
33553;SDS011;19885;42.208;24.952;2022-12-10T00:54:39;35.27;;;16.27;;
33553;SDS011;19885;42.208;24.952;2022-12-10T00:57:04;48.23;;;17.53;;
33553;SDS011;19885;42.208;24.952;2022-12-10T00:59:30;44.87;;;18.00;;
33553;SDS011;19885;42.208;24.952;2022-12-10T01:01:55;33.87;;;16.10;;
33553;SDS011;19885;42.208;24.952;2022-12-10T01:04:21;37.07;;;14.83;;
33553;SDS011;19885;42.208;24.952;2022-12-10T01:06:50;35.27;;;15.27;;
33553;SDS011;19885;42.208;24.952;2022-12-10T01:09:19;40.63;;;15.70;;
33553;SDS011;19885;42.208;24.952;2022-12-10T01:11:46;31.10;;;13.50;;
33553;SDS011;19885;42.208;24.952;2022-12-10T01:14:14;31.97;;;13.10;;
33553;SDS011;19885;42.208;24.952;2022-12-10T01:16:43;35.80;;;15.03;;
33553;SDS011;19885;42.208;24.952;2022-12-10T01:19:09;35.47;;;15.70;;
33553;SDS011;19885;42.208;24.952;2022-12-10T01:21:36;27.67;;;14.33;;
33553;SDS011;19885;42.208;24.952;2022-12-10T01:24:02;38.30;;;15.43;;
33553;SDS011;19885;42.208;24.952;2022-12-10T01:26:29;39.07;;;15.73;;
33553;SDS011;19885;42.208;24.952;2022-12-10T01:28:57;36.97;;;13.87;;
33553;SDS011;19885;42.208;24.952;2022-12-10T01:31:27;31.67;;;14.23;;
33553;SDS011;19885;42.208;24.952;2022-12-10T01:33:58;29.80;;;14.00;;
33553;SDS011;19885;42.208;24.952;2022-12-10T01:36:28;34.87;;;14.83;;
33553;SDS011;19885;42.208;24.952;2022-12-10T01:38:56;35.53;;;16.37;;
33553;SDS011;19885;42.208;24.952;2022-12-10T01:41:26;28.23;;;14.47;;
33553;SDS011;19885;42.208;24.952;2022-12-10T01:46:49;38.87;;;14.17;;
33553;SDS011;19885;42.208;24.952;2022-12-10T01:49:20;37.80;;;14.77;;
33553;SDS011;19885;42.208;24.952;2022-12-10T01:51:51;27.30;;;13.10;;
33553;SDS011;19885;42.208;24.952;2022-12-10T01:54:23;32.53;;;12.20;;
33553;SDS011;19885;42.208;24.952;2022-12-10T01:56:51;32.87;;;14.20;;
33553;SDS011;19885;42.208;24.952;2022-12-10T01:59:23;32.80;;;14.10;;
33553;SDS011;19885;42.208;24.952;2022-12-10T02:02:05;29.80;;;13.07;;
33553;SDS011;19885;42.208;24.952;2022-12-10T02:07:20;27.83;;;13.23;;
33553;SDS011;19885;42.208;24.952;2022-12-10T02:12:38;35.43;;;13.97;;
33553;SDS011;19885;42.208;24.952;2022-12-10T02:15:15;29.63;;;12.33;;
33553;SDS011;19885;42.208;24.952;2022-12-10T02:17:45;37.60;;;14.87;;
33553;SDS011;19885;42.208;24.952;2022-12-10T02:20:35;33.00;;;14.93;;
33553;SDS011;19885;42.208;24.952;2022-12-10T02:23:05;32.30;;;14.97;;
33553;SDS011;19885;42.208;24.952;2022-12-10T02:31:14;33.47;;;14.40;;
33553;SDS011;19885;42.208;24.952;2022-12-10T02:33:45;32.83;;;15.30;;
33553;SDS011;19885;42.208;24.952;2022-12-10T02:36:14;36.87;;;15.43;;
33553;SDS011;19885;42.208;24.952;2022-12-10T02:38:41;37.93;;;15.43;;
33553;SDS011;19885;42.208;24.952;2022-12-10T02:41:12;34.60;;;15.57;;
33553;SDS011;19885;42.208;24.952;2022-12-10T02:43:41;37.73;;;15.60;;
33553;SDS011;19885;42.208;24.952;2022-12-10T02:46:11;36.10;;;14.73;;
33553;SDS011;19885;42.208;24.952;2022-12-10T02:48:37;36.87;;;15.53;;
33553;SDS011;19885;42.208;24.952;2022-12-10T02:51:05;43.10;;;15.77;;
33553;SDS011;19885;42.208;24.952;2022-12-10T02:53:30;35.17;;;17.13;;
33553;SDS011;19885;42.208;24.952;2022-12-10T02:56:08;37.33;;;15.63;;
33553;SDS011;19885;42.208;24.952;2022-12-10T03:01:40;38.97;;;15.50;;
33553;SDS011;19885;42.208;24.952;2022-12-10T03:04:22;35.97;;;15.40;;
33553;SDS011;19885;42.208;24.952;2022-12-10T03:06:53;42.13;;;14.63;;
33553;SDS011;19885;42.208;24.952;2022-12-10T03:09:26;34.53;;;14.97;;
33553;SDS011;19885;42.208;24.952;2022-12-10T03:12:05;32.93;;;14.50;;
33553;SDS011;19885;42.208;24.952;2022-12-10T03:14:40;34.70;;;16.80;;
33553;SDS011;19885;42.208;24.952;2022-12-10T03:17:08;48.43;;;16.90;;
33553;SDS011;19885;42.208;24.952;2022-12-10T03:19:38;37.93;;;14.50;;
33553;SDS011;19885;42.208;24.952;2022-12-10T03:22:07;37.23;;;16.07;;
33553;SDS011;19885;42.208;24.952;2022-12-10T03:24:37;39.43;;;16.50;;
33553;SDS011;19885;42.208;24.952;2022-12-10T03:27:04;42.67;;;14.97;;
33553;SDS011;19885;42.208;24.952;2022-12-10T03:29:36;33.27;;;16.07;;
33553;SDS011;19885;42.208;24.952;2022-12-10T03:32:07;32.73;;;15.20;;
33553;SDS011;19885;42.208;24.952;2022-12-10T03:34:33;43.03;;;15.97;;
33553;SDS011;19885;42.208;24.952;2022-12-10T03:37:00;36.30;;;14.23;;
33553;SDS011;19885;42.208;24.952;2022-12-10T03:39:26;34.40;;;14.93;;
33553;SDS011;19885;42.208;24.952;2022-12-10T03:41:52;47.37;;;14.83;;
33553;SDS011;19885;42.208;24.952;2022-12-10T03:44:31;36.00;;;14.50;;
33553;SDS011;19885;42.208;24.952;2022-12-10T03:46:58;31.13;;;15.10;;
33553;SDS011;19885;42.208;24.952;2022-12-10T03:49:24;37.17;;;15.70;;
33553;SDS011;19885;42.208;24.952;2022-12-10T03:51:50;47.10;;;17.23;;
33553;SDS011;19885;42.208;24.952;2022-12-10T03:54:15;45.27;;;16.23;;
33553;SDS011;19885;42.208;24.952;2022-12-10T03:56:41;38.67;;;16.23;;
33553;SDS011;19885;42.208;24.952;2022-12-10T03:59:06;32.97;;;15.90;;
33553;SDS011;19885;42.208;24.952;2022-12-10T04:01:32;37.70;;;14.53;;
33553;SDS011;19885;42.208;24.952;2022-12-10T04:03:57;31.50;;;14.57;;
33553;SDS011;19885;42.208;24.952;2022-12-10T04:06:23;38.30;;;16.13;;
33553;SDS011;19885;42.208;24.952;2022-12-10T04:08:48;34.37;;;14.47;;
33553;SDS011;19885;42.208;24.952;2022-12-10T04:11:14;34.43;;;15.87;;
33553;SDS011;19885;42.208;24.952;2022-12-10T04:13:41;44.33;;;18.53;;
33553;SDS011;19885;42.208;24.952;2022-12-10T04:16:26;40.60;;;17.97;;
33553;SDS011;19885;42.208;24.952;2022-12-10T04:19:12;51.77;;;19.60;;
33553;SDS011;19885;42.208;24.952;2022-12-10T04:21:40;37.10;;;16.17;;
33553;SDS011;19885;42.208;24.952;2022-12-10T04:24:26;43.13;;;18.40;;
33553;SDS011;19885;42.208;24.952;2022-12-10T04:27:13;37.93;;;17.53;;
33553;SDS011;19885;42.208;24.952;2022-12-10T04:29:47;51.27;;;19.53;;
33553;SDS011;19885;42.208;24.952;2022-12-10T04:32:13;43.77;;;19.20;;
33553;SDS011;19885;42.208;24.952;2022-12-10T04:34:40;47.13;;;17.87;;
33553;SDS011;19885;42.208;24.952;2022-12-10T04:37:05;49.47;;;18.53;;
33553;SDS011;19885;42.208;24.952;2022-12-10T04:39:31;41.83;;;18.33;;
33553;SDS011;19885;42.208;24.952;2022-12-10T04:41:58;42.40;;;19.00;;
33553;SDS011;19885;42.208;24.952;2022-12-10T04:44:25;56.50;;;21.37;;
33553;SDS011;19885;42.208;24.952;2022-12-10T04:46:51;45.23;;;19.17;;
33553;SDS011;19885;42.208;24.952;2022-12-10T04:49:17;37.57;;;15.93;;
33553;SDS011;19885;42.208;24.952;2022-12-10T04:51:43;38.40;;;17.60;;
33553;SDS011;19885;42.208;24.952;2022-12-10T04:54:10;38.80;;;17.83;;
33553;SDS011;19885;42.208;24.952;2022-12-10T04:56:36;38.53;;;15.97;;
33553;SDS011;19885;42.208;24.952;2022-12-10T04:59:03;36.70;;;15.30;;
33553;SDS011;19885;42.208;24.952;2022-12-10T05:01:29;42.43;;;17.70;;
33553;SDS011;19885;42.208;24.952;2022-12-10T05:03:57;40.77;;;17.40;;
33553;SDS011;19885;42.208;24.952;2022-12-10T05:06:24;41.00;;;16.90;;
33553;SDS011;19885;42.208;24.952;2022-12-10T05:08:50;34.53;;;17.27;;
33553;SDS011;19885;42.208;24.952;2022-12-10T05:11:16;44.33;;;18.20;;
33553;SDS011;19885;42.208;24.952;2022-12-10T05:13:46;47.57;;;20.80;;
33553;SDS011;19885;42.208;24.952;2022-12-10T05:16:13;62.83;;;22.43;;
33553;SDS011;19885;42.208;24.952;2022-12-10T05:18:42;57.00;;;22.57;;
33553;SDS011;19885;42.208;24.952;2022-12-10T05:21:12;60.03;;;23.47;;
33553;SDS011;19885;42.208;24.952;2022-12-10T05:23:40;58.23;;;24.00;;
33553;SDS011;19885;42.208;24.952;2022-12-10T05:28:36;58.10;;;24.80;;
33553;SDS011;19885;42.208;24.952;2022-12-10T05:31:03;69.10;;;25.10;;
33553;SDS011;19885;42.208;24.952;2022-12-10T05:33:29;57.20;;;25.70;;
33553;SDS011;19885;42.208;24.952;2022-12-10T05:35:57;58.10;;;24.70;;
33553;SDS011;19885;42.208;24.952;2022-12-10T05:38:25;67.00;;;27.27;;
33553;SDS011;19885;42.208;24.952;2022-12-10T05:40:52;67.33;;;27.13;;
33553;SDS011;19885;42.208;24.952;2022-12-10T05:43:18;60.23;;;26.10;;
33553;SDS011;19885;42.208;24.952;2022-12-10T05:45:43;78.97;;;26.97;;
33553;SDS011;19885;42.208;24.952;2022-12-10T05:48:10;69.40;;;27.23;;
33553;SDS011;19885;42.208;24.952;2022-12-10T05:50:37;63.10;;;26.00;;
33553;SDS011;19885;42.208;24.952;2022-12-10T05:53:03;65.17;;;24.30;;
33553;SDS011;19885;42.208;24.952;2022-12-10T05:55:29;65.57;;;24.70;;
33553;SDS011;19885;42.208;24.952;2022-12-10T05:57:56;61.93;;;23.57;;
33553;SDS011;19885;42.208;24.952;2022-12-10T06:00:24;53.73;;;22.50;;
33553;SDS011;19885;42.208;24.952;2022-12-10T06:02:50;72.07;;;27.87;;
33553;SDS011;19885;42.208;24.952;2022-12-10T06:05:18;58.90;;;23.37;;
33553;SDS011;19885;42.208;24.952;2022-12-10T06:07:43;56.40;;;24.20;;
33553;SDS011;19885;42.208;24.952;2022-12-10T06:10:09;48.53;;;22.80;;
33553;SDS011;19885;42.208;24.952;2022-12-10T06:12:36;44.77;;;20.63;;
33553;SDS011;19885;42.208;24.952;2022-12-10T06:15:02;44.30;;;18.00;;
33553;SDS011;19885;42.208;24.952;2022-12-10T06:17:28;49.70;;;20.87;;
33553;SDS011;19885;42.208;24.952;2022-12-10T06:19:54;43.63;;;19.07;;
33553;SDS011;19885;42.208;24.952;2022-12-10T06:22:19;40.87;;;18.13;;
33553;SDS011;19885;42.208;24.952;2022-12-10T06:24:45;47.13;;;20.60;;
33553;SDS011;19885;42.208;24.952;2022-12-10T06:27:10;49.37;;;19.97;;
33553;SDS011;19885;42.208;24.952;2022-12-10T06:29:36;51.20;;;20.50;;
33553;SDS011;19885;42.208;24.952;2022-12-10T06:32:01;42.63;;;20.67;;
33553;SDS011;19885;42.208;24.952;2022-12-10T06:34:27;44.70;;;19.37;;
33553;SDS011;19885;42.208;24.952;2022-12-10T06:36:52;44.80;;;18.67;;
33553;SDS011;19885;42.208;24.952;2022-12-10T06:39:18;47.23;;;20.57;;
33553;SDS011;19885;42.208;24.952;2022-12-10T06:41:43;45.37;;;19.17;;
33553;SDS011;19885;42.208;24.952;2022-12-10T06:44:11;41.30;;;20.03;;
33553;SDS011;19885;42.208;24.952;2022-12-10T06:46:37;50.13;;;19.63;;
33553;SDS011;19885;42.208;24.952;2022-12-10T06:49:06;51.67;;;20.63;;
33553;SDS011;19885;42.208;24.952;2022-12-10T06:51:32;42.33;;;19.03;;
33553;SDS011;19885;42.208;24.952;2022-12-10T06:53:58;43.53;;;18.80;;
33553;SDS011;19885;42.208;24.952;2022-12-10T06:56:24;54.83;;;19.63;;
33553;SDS011;19885;42.208;24.952;2022-12-10T06:58:49;71.50;;;29.13;;
33553;SDS011;19885;42.208;24.952;2022-12-10T07:01:16;50.63;;;22.90;;
33553;SDS011;19885;42.208;24.952;2022-12-10T07:03:47;42.17;;;17.10;;
33553;SDS011;19885;42.208;24.952;2022-12-10T07:06:20;46.30;;;18.57;;
33553;SDS011;19885;42.208;24.952;2022-12-10T07:08:46;40.00;;;17.57;;
33553;SDS011;19885;42.208;24.952;2022-12-10T07:11:13;48.40;;;18.97;;
33553;SDS011;19885;42.208;24.952;2022-12-10T07:13:40;42.03;;;16.33;;
33553;SDS011;19885;42.208;24.952;2022-12-10T07:16:14;39.43;;;16.73;;
33553;SDS011;19885;42.208;24.952;2022-12-10T07:18:41;31.57;;;16.10;;
33553;SDS011;19885;42.208;24.952;2022-12-10T07:21:13;47.87;;;18.67;;
33553;SDS011;19885;42.208;24.952;2022-12-10T07:23:40;36.17;;;18.00;;
33553;SDS011;19885;42.208;24.952;2022-12-10T07:26:06;51.07;;;19.17;;
33553;SDS011;19885;42.208;24.952;2022-12-10T07:28:31;36.63;;;17.47;;
33553;SDS011;19885;42.208;24.952;2022-12-10T07:31:01;43.17;;;19.17;;
33553;SDS011;19885;42.208;24.952;2022-12-10T07:33:28;36.87;;;16.63;;
33553;SDS011;19885;42.208;24.952;2022-12-10T07:35:53;47.63;;;18.00;;
33553;SDS011;19885;42.208;24.952;2022-12-10T07:38:19;41.60;;;16.90;;
33553;SDS011;19885;42.208;24.952;2022-12-10T07:40:44;45.87;;;17.37;;
33553;SDS011;19885;42.208;24.952;2022-12-10T07:43:10;39.50;;;18.10;;
33553;SDS011;19885;42.208;24.952;2022-12-10T07:45:35;60.57;;;23.07;;
33553;SDS011;19885;42.208;24.952;2022-12-10T07:48:01;41.90;;;17.27;;
33553;SDS011;19885;42.208;24.952;2022-12-10T07:50:26;34.83;;;15.37;;
33553;SDS011;19885;42.208;24.952;2022-12-10T07:52:51;28.77;;;13.03;;
33553;SDS011;19885;42.208;24.952;2022-12-10T07:55:17;24.50;;;11.33;;
33553;SDS011;19885;42.208;24.952;2022-12-10T07:57:42;23.97;;;12.37;;
33553;SDS011;19885;42.208;24.952;2022-12-10T08:00:08;26.93;;;12.70;;
33553;SDS011;19885;42.208;24.952;2022-12-10T08:02:35;20.30;;;11.20;;
33553;SDS011;19885;42.208;24.952;2022-12-10T08:05:00;36.37;;;14.83;;
33553;SDS011;19885;42.208;24.952;2022-12-10T08:07:26;20.37;;;11.57;;
33553;SDS011;19885;42.208;24.952;2022-12-10T08:09:52;24.50;;;12.37;;
33553;SDS011;19885;42.208;24.952;2022-12-10T08:12:17;25.63;;;12.47;;
33553;SDS011;19885;42.208;24.952;2022-12-10T08:14:42;31.00;;;14.70;;
33553;SDS011;19885;42.208;24.952;2022-12-10T08:17:08;30.50;;;11.90;;
33553;SDS011;19885;42.208;24.952;2022-12-10T08:19:33;21.83;;;11.43;;
33553;SDS011;19885;42.208;24.952;2022-12-10T08:21:59;19.63;;;11.13;;
33553;SDS011;19885;42.208;24.952;2022-12-10T08:24:24;23.53;;;11.70;;
33553;SDS011;19885;42.208;24.952;2022-12-10T08:26:50;22.07;;;11.83;;
33553;SDS011;19885;42.208;24.952;2022-12-10T08:29:16;22.17;;;11.23;;
33553;SDS011;19885;42.208;24.952;2022-12-10T08:31:41;26.60;;;12.73;;
33553;SDS011;19885;42.208;24.952;2022-12-10T08:34:13;27.77;;;13.63;;
33553;SDS011;19885;42.208;24.952;2022-12-10T08:36:41;25.70;;;12.00;;
33553;SDS011;19885;42.208;24.952;2022-12-10T08:39:07;23.77;;;11.13;;
33553;SDS011;19885;42.208;24.952;2022-12-10T08:41:35;29.63;;;14.47;;
33553;SDS011;19885;42.208;24.952;2022-12-10T08:44:01;20.03;;;12.47;;
33553;SDS011;19885;42.208;24.952;2022-12-10T08:46:26;25.60;;;12.87;;
33553;SDS011;19885;42.208;24.952;2022-12-10T08:48:52;28.97;;;12.63;;
33553;SDS011;19885;42.208;24.952;2022-12-10T08:51:17;24.37;;;11.83;;
33553;SDS011;19885;42.208;24.952;2022-12-10T08:53:44;24.70;;;12.00;;
33553;SDS011;19885;42.208;24.952;2022-12-10T08:56:09;24.47;;;11.03;;
33553;SDS011;19885;42.208;24.952;2022-12-10T08:58:36;23.80;;;11.83;;
33553;SDS011;19885;42.208;24.952;2022-12-10T09:01:10;29.20;;;12.90;;
33553;SDS011;19885;42.208;24.952;2022-12-10T09:03:37;27.07;;;12.50;;
33553;SDS011;19885;42.208;24.952;2022-12-10T09:06:04;29.13;;;13.13;;
33553;SDS011;19885;42.208;24.952;2022-12-10T09:08:30;34.83;;;12.77;;
33553;SDS011;19885;42.208;24.952;2022-12-10T09:10:56;26.70;;;13.43;;
33553;SDS011;19885;42.208;24.952;2022-12-10T09:13:22;24.00;;;13.37;;
33553;SDS011;19885;42.208;24.952;2022-12-10T09:15:51;26.50;;;13.50;;
33553;SDS011;19885;42.208;24.952;2022-12-10T09:18:17;32.67;;;16.33;;
33553;SDS011;19885;42.208;24.952;2022-12-10T09:20:43;36.03;;;17.40;;
33553;SDS011;19885;42.208;24.952;2022-12-10T09:23:10;32.03;;;16.13;;
33553;SDS011;19885;42.208;24.952;2022-12-10T09:25:35;31.47;;;15.90;;
33553;SDS011;19885;42.208;24.952;2022-12-10T09:28:01;30.53;;;14.13;;
33553;SDS011;19885;42.208;24.952;2022-12-10T09:30:27;30.57;;;14.33;;
33553;SDS011;19885;42.208;24.952;2022-12-10T09:32:52;24.20;;;13.90;;
33553;SDS011;19885;42.208;24.952;2022-12-10T09:35:17;35.07;;;15.20;;
33553;SDS011;19885;42.208;24.952;2022-12-10T09:37:43;29.70;;;15.30;;
33553;SDS011;19885;42.208;24.952;2022-12-10T09:40:13;30.43;;;15.43;;
33553;SDS011;19885;42.208;24.952;2022-12-10T09:42:58;31.03;;;15.43;;
33553;SDS011;19885;42.208;24.952;2022-12-10T09:48:25;35.10;;;15.93;;
33553;SDS011;19885;42.208;24.952;2022-12-10T09:53:31;27.13;;;14.63;;
33553;SDS011;19885;42.208;24.952;2022-12-10T09:56:00;30.33;;;14.77;;
33553;SDS011;19885;42.208;24.952;2022-12-10T09:58:27;28.87;;;14.10;;
33553;SDS011;19885;42.208;24.952;2022-12-10T10:01:00;27.50;;;14.93;;
33553;SDS011;19885;42.208;24.952;2022-12-10T10:03:31;29.10;;;14.37;;
33553;SDS011;19885;42.208;24.952;2022-12-10T10:06:01;29.97;;;13.83;;
33553;SDS011;19885;42.208;24.952;2022-12-10T10:08:33;32.87;;;13.97;;
33553;SDS011;19885;42.208;24.952;2022-12-10T10:11:02;28.97;;;13.53;;
33553;SDS011;19885;42.208;24.952;2022-12-10T10:18:50;23.93;;;12.33;;
33553;SDS011;19885;42.208;24.952;2022-12-10T10:21:21;26.07;;;13.67;;
33553;SDS011;19885;42.208;24.952;2022-12-10T10:23:51;30.50;;;13.37;;
33553;SDS011;19885;42.208;24.952;2022-12-10T10:26:17;28.63;;;14.13;;
33553;SDS011;19885;42.208;24.952;2022-12-10T10:28:43;31.57;;;12.80;;
33553;SDS011;19885;42.208;24.952;2022-12-10T10:31:20;29.63;;;14.07;;
33553;SDS011;19885;42.208;24.952;2022-12-10T10:33:53;24.17;;;13.13;;
33553;SDS011;19885;42.208;24.952;2022-12-10T10:36:28;25.10;;;12.77;;
33553;SDS011;19885;42.208;24.952;2022-12-10T10:38:58;26.40;;;14.07;;
33553;SDS011;19885;42.208;24.952;2022-12-10T10:41:37;27.60;;;13.07;;
33553;SDS011;19885;42.208;24.952;2022-12-10T10:44:26;28.40;;;13.03;;
33553;SDS011;19885;42.208;24.952;2022-12-10T10:46:58;23.03;;;13.60;;
33553;SDS011;19885;42.208;24.952;2022-12-10T10:51:50;30.43;;;14.00;;
33553;SDS011;19885;42.208;24.952;2022-12-10T10:54:32;26.77;;;13.03;;
33553;SDS011;19885;42.208;24.952;2022-12-10T10:57:22;26.80;;;13.77;;
33553;SDS011;19885;42.208;24.952;2022-12-10T11:00:00;31.67;;;15.43;;
33553;SDS011;19885;42.208;24.952;2022-12-10T11:02:35;31.43;;;15.87;;
33553;SDS011;19885;42.208;24.952;2022-12-10T11:05:06;37.57;;;14.63;;
33553;SDS011;19885;42.208;24.952;2022-12-10T11:07:42;40.27;;;16.33;;
33553;SDS011;19885;42.208;24.952;2022-12-10T11:10:22;30.97;;;14.80;;
33553;SDS011;19885;42.208;24.952;2022-12-10T11:12:55;28.20;;;13.70;;
33553;SDS011;19885;42.208;24.952;2022-12-10T11:15:31;32.73;;;15.57;;
33553;SDS011;19885;42.208;24.952;2022-12-10T11:23:53;25.53;;;13.27;;
33553;SDS011;19885;42.208;24.952;2022-12-10T11:26:42;33.53;;;14.53;;
33553;SDS011;19885;42.208;24.952;2022-12-10T11:35:08;37.27;;;15.37;;
33553;SDS011;19885;42.208;24.952;2022-12-10T11:38:02;28.77;;;14.40;;
33553;SDS011;19885;42.208;24.952;2022-12-10T11:46:19;40.60;;;19.90;;
33553;SDS011;19885;42.208;24.952;2022-12-10T11:57:43;37.40;;;17.90;;
33553;SDS011;19885;42.208;24.952;2022-12-10T12:00:30;36.33;;;18.10;;
33553;SDS011;19885;42.208;24.952;2022-12-10T12:03:14;36.00;;;16.93;;
33553;SDS011;19885;42.208;24.952;2022-12-10T12:14:04;39.80;;;16.80;;
33553;SDS011;19885;42.208;24.952;2022-12-10T12:16:40;27.73;;;14.93;;
33553;SDS011;19885;42.208;24.952;2022-12-10T12:19:15;37.57;;;18.47;;
33553;SDS011;19885;42.208;24.952;2022-12-10T12:21:45;30.77;;;16.73;;
33553;SDS011;19885;42.208;24.952;2022-12-10T12:24:22;43.17;;;19.00;;
33553;SDS011;19885;42.208;24.952;2022-12-10T12:27:04;37.13;;;18.20;;
33553;SDS011;19885;42.208;24.952;2022-12-10T12:29:47;32.47;;;15.73;;
33553;SDS011;19885;42.208;24.952;2022-12-10T12:32:32;31.63;;;15.20;;
33553;SDS011;19885;42.208;24.952;2022-12-10T12:35:09;33.10;;;15.23;;
33553;SDS011;19885;42.208;24.952;2022-12-10T12:37:46;32.90;;;17.13;;
33553;SDS011;19885;42.208;24.952;2022-12-10T12:40:27;43.80;;;17.77;;
33553;SDS011;19885;42.208;24.952;2022-12-10T12:43:10;32.90;;;15.50;;
33553;SDS011;19885;42.208;24.952;2022-12-10T12:45:43;27.37;;;15.97;;
33553;SDS011;19885;42.208;24.952;2022-12-10T12:53:41;29.60;;;16.50;;
33553;SDS011;19885;42.208;24.952;2022-12-10T12:56:14;29.83;;;15.60;;
33553;SDS011;19885;42.208;24.952;2022-12-10T13:04:40;39.07;;;17.73;;
33553;SDS011;19885;42.208;24.952;2022-12-10T13:09:45;33.87;;;16.23;;
33553;SDS011;19885;42.208;24.952;2022-12-10T13:12:32;31.40;;;15.97;;
33553;SDS011;19885;42.208;24.952;2022-12-10T13:15:18;37.93;;;18.27;;
33553;SDS011;19885;42.208;24.952;2022-12-10T13:20:39;32.20;;;15.80;;
33553;SDS011;19885;42.208;24.952;2022-12-10T13:36:26;34.97;;;16.47;;
33553;SDS011;19885;42.208;24.952;2022-12-10T13:41:28;33.13;;;16.33;;
33553;SDS011;19885;42.208;24.952;2022-12-10T13:49:43;33.87;;;15.97;;
33553;SDS011;19885;42.208;24.952;2022-12-10T13:52:19;31.90;;;15.13;;
33553;SDS011;19885;42.208;24.952;2022-12-10T13:55:29;41.10;;;17.07;;
33553;SDS011;19885;42.208;24.952;2022-12-10T13:58:04;30.63;;;17.00;;
33553;SDS011;19885;42.208;24.952;2022-12-10T14:08:31;35.47;;;15.83;;
33553;SDS011;19885;42.208;24.952;2022-12-10T14:10:59;44.07;;;23.17;;
33553;SDS011;19885;42.208;24.952;2022-12-10T14:13:38;46.37;;;22.90;;
33553;SDS011;19885;42.208;24.952;2022-12-10T14:16:12;33.33;;;17.97;;
33553;SDS011;19885;42.208;24.952;2022-12-10T14:18:43;32.03;;;16.50;;
33553;SDS011;19885;42.208;24.952;2022-12-10T14:21:15;32.73;;;16.70;;
33553;SDS011;19885;42.208;24.952;2022-12-10T14:23:44;32.50;;;18.00;;
33553;SDS011;19885;42.208;24.952;2022-12-10T14:26:13;33.57;;;16.03;;
33553;SDS011;19885;42.208;24.952;2022-12-10T14:28:42;28.53;;;17.63;;
33553;SDS011;19885;42.208;24.952;2022-12-10T14:31:17;44.63;;;22.97;;
33553;SDS011;19885;42.208;24.952;2022-12-10T14:33:46;42.77;;;19.20;;
33553;SDS011;19885;42.208;24.952;2022-12-10T14:36:16;34.43;;;18.37;;
33553;SDS011;19885;42.208;24.952;2022-12-10T14:38:49;40.13;;;19.63;;
33553;SDS011;19885;42.208;24.952;2022-12-10T14:41:17;36.53;;;18.83;;
33553;SDS011;19885;42.208;24.952;2022-12-10T14:43:46;37.33;;;19.87;;
33553;SDS011;19885;42.208;24.952;2022-12-10T14:46:14;53.73;;;25.50;;
33553;SDS011;19885;42.208;24.952;2022-12-10T14:48:58;52.97;;;28.47;;
33553;SDS011;19885;42.208;24.952;2022-12-10T14:51:25;51.20;;;23.93;;
33553;SDS011;19885;42.208;24.952;2022-12-10T14:53:56;33.77;;;19.57;;
33553;SDS011;19885;42.208;24.952;2022-12-10T14:59:17;39.07;;;20.20;;
33553;SDS011;19885;42.208;24.952;2022-12-10T15:01:47;158.97;;;77.87;;
33553;SDS011;19885;42.208;24.952;2022-12-10T15:04:19;60.53;;;29.23;;
33553;SDS011;19885;42.208;24.952;2022-12-10T15:06:45;40.50;;;22.77;;
33553;SDS011;19885;42.208;24.952;2022-12-10T15:09:16;56.77;;;26.47;;
33553;SDS011;19885;42.208;24.952;2022-12-10T15:11:45;92.33;;;43.93;;
33553;SDS011;19885;42.208;24.952;2022-12-10T15:14:18;85.37;;;40.03;;
33553;SDS011;19885;42.208;24.952;2022-12-10T15:16:46;93.40;;;52.93;;
33553;SDS011;19885;42.208;24.952;2022-12-10T15:21:58;64.90;;;32.40;;
33553;SDS011;19885;42.208;24.952;2022-12-10T15:24:42;55.73;;;30.83;;
33553;SDS011;19885;42.208;24.952;2022-12-10T15:27:21;67.73;;;32.00;;
33553;SDS011;19885;42.208;24.952;2022-12-10T15:29:48;58.80;;;33.07;;
33553;SDS011;19885;42.208;24.952;2022-12-10T15:32:19;58.10;;;29.07;;
33553;SDS011;19885;42.208;24.952;2022-12-10T15:34:58;51.77;;;27.70;;
33553;SDS011;19885;42.208;24.952;2022-12-10T15:37:26;53.57;;;29.10;;
33553;SDS011;19885;42.208;24.952;2022-12-10T15:39:59;58.47;;;30.80;;
33553;SDS011;19885;42.208;24.952;2022-12-10T15:42:31;60.70;;;30.07;;
33553;SDS011;19885;42.208;24.952;2022-12-10T15:45:17;68.03;;;34.13;;
33553;SDS011;19885;42.208;24.952;2022-12-10T15:47:45;64.60;;;32.83;;
33553;SDS011;19885;42.208;24.952;2022-12-10T15:50:11;70.13;;;35.37;;
33553;SDS011;19885;42.208;24.952;2022-12-10T15:52:37;61.47;;;32.50;;
33553;SDS011;19885;42.208;24.952;2022-12-10T15:55:03;59.83;;;31.60;;
33553;SDS011;19885;42.208;24.952;2022-12-10T15:57:33;69.20;;;33.27;;
33553;SDS011;19885;42.208;24.952;2022-12-10T16:00:02;53.33;;;29.87;;
33553;SDS011;19885;42.208;24.952;2022-12-10T16:05:16;63.63;;;34.47;;
33553;SDS011;19885;42.208;24.952;2022-12-10T16:07:45;71.10;;;37.10;;
33553;SDS011;19885;42.208;24.952;2022-12-10T16:10:12;68.40;;;34.17;;
33553;SDS011;19885;42.208;24.952;2022-12-10T16:12:42;57.93;;;31.07;;
33553;SDS011;19885;42.208;24.952;2022-12-10T16:15:20;46.10;;;28.50;;
33553;SDS011;19885;42.208;24.952;2022-12-10T16:17:49;42.47;;;26.93;;
33553;SDS011;19885;42.208;24.952;2022-12-10T16:20:23;49.60;;;28.10;;
33553;SDS011;19885;42.208;24.952;2022-12-10T16:22:53;43.73;;;26.33;;
33553;SDS011;19885;42.208;24.952;2022-12-10T16:25:20;54.43;;;29.60;;